Time;durP1;ratioP1;P1;durP2;ratioP2;P2;SDS_P1;SDS_P2;PMS_P1;PMS_P2;Temp;Humidity;BMP_temperature;BMP_pressure;BME280_temperature;BME280_humidity;BME280_pressure;Samples;Min_cycle;Max_cycle;Signal;HPM_P1;HPM_P2
2023/06/18 00:00:13;;;;;;;;;;;16.50;99.90;;;;;;5045733;28;19931;-70
2023/06/18 00:02:39;;;;;;;;;;;16.50;99.90;;;;;;5046022;28;19921;-71
2023/06/18 00:05:06;;;;;;;;;;;16.40;99.90;;;;;;5045830;28;19956;-70
2023/06/18 00:07:33;;;;;;;;;;;16.40;99.90;;;;;;5045380;28;19953;-70
2023/06/18 00:10:02;;;;;;;;;;;16.40;99.90;;;;;;5045869;28;19921;-70
2023/06/18 00:12:29;;;;;;;;;;;16.40;99.90;;;;;;5045888;28;19936;-70
2023/06/18 00:14:56;;;;;;;;;;;16.30;99.90;;;;;;5045261;28;20224;-70
2023/06/18 00:17:26;;;;;;;;;;;16.30;99.90;;;;;;5045183;28;20979;-70
2023/06/18 00:19:52;;;;;;;;;;;16.20;99.90;;;;;;5045947;28;19927;-70
2023/06/18 00:22:21;;;;;;;;;;;16.20;99.90;;;;;;5044942;28;19927;-70
2023/06/18 00:24:48;;;;;;;;;;;16.20;99.90;;;;;;5045788;28;19921;-70
2023/06/18 00:27:14;;;;;;;;;;;16.10;99.90;;;;;;5045494;28;19927;-71
2023/06/18 00:29:46;;;;;;;;;;;16.10;99.90;;;;;;5045507;28;19921;-70
2023/06/18 00:32:13;;;;;;;;;;;16.10;99.90;;;;;;5045101;28;19963;-70
2023/06/18 00:34:41;;;;;;;;;;;16.10;99.90;;;;;;5025770;28;19932;-70
2023/06/18 00:37:09;;;;;;;;;;;16.00;99.90;;;;;;5025768;28;19992;-70
2023/06/18 00:39:36;;;;;;;;;;;16.00;99.90;;;;;;5037422;28;19949;-69
2023/06/18 00:42:02;;;;;;;;;;;15.90;99.90;;;;;;5045031;28;19921;-70
2023/06/18 00:44:29;;;;;;;;;;;15.80;99.90;;;;;;5045432;28;19992;-70
2023/06/18 00:46:56;;;;;;;;;;;15.80;99.90;;;;;;5044963;28;19928;-70
2023/06/18 00:49:23;;;;;;;;;;;15.70;99.90;;;;;;5045077;28;19928;-70
2023/06/18 00:51:52;;;;;;;;;;;15.70;99.90;;;;;;5044768;28;19985;-70
2023/06/18 00:54:19;;;;;;;;;;;15.60;99.90;;;;;;5045036;28;19921;-70
2023/06/18 00:56:50;;;;;;;;;;;15.50;99.90;;;;;;5045089;28;19921;-70
2023/06/18 00:59:22;;;;;;;;;;;15.50;99.90;;;;;;5045161;28;19928;-70
2023/06/18 01:01:49;;;;;;;;;;;15.40;99.90;;;;;;5044514;28;19921;-71
2023/06/18 01:04:15;;;;;;;;;;;15.30;99.90;;;;;;5024900;28;19927;-70
2023/06/18 01:06:42;;;;;;;;;;;15.30;99.90;;;;;;5025180;28;19985;-70
2023/06/18 01:09:12;;;;;;;;;;;15.30;99.90;;;;;;5032201;28;20239;-69
2023/06/18 01:11:40;;;;;;;;;;;15.30;99.90;;;;;;5044409;28;19963;-69
2023/06/18 01:14:09;;;;;;;;;;;15.20;99.90;;;;;;5044357;28;19921;-69
2023/06/18 01:16:36;;;;;;;;;;;15.10;99.90;;;;;;5044308;28;19925;-72
2023/06/18 01:19:04;;;;;;;;;;;15.10;99.90;;;;;;5043776;28;19921;-70
2023/06/18 01:21:34;;;;;;;;;;;15.10;99.90;;;;;;5043434;28;19921;-70
2023/06/18 01:24:04;;;;;;;;;;;15.10;99.90;;;;;;5043821;28;20235;-69
2023/06/18 01:26:32;;;;;;;;;;;15.10;99.90;;;;;;5044239;28;20259;-70
2023/06/18 01:29:00;;;;;;;;;;;15.10;99.90;;;;;;5044671;28;19959;-70
2023/06/18 01:31:26;;;;;;;;;;;15.00;99.90;;;;;;5044029;28;20209;-70
2023/06/18 01:33:53;;;;;;;;;;;15.00;99.90;;;;;;5044603;28;19927;-70
2023/06/18 01:36:24;;;;;;;;;;;14.90;99.90;;;;;;5044346;28;19943;-69
2023/06/18 01:38:52;;;;;;;;;;;14.90;99.90;;;;;;5044099;28;19967;-70
2023/06/18 01:41:22;;;;;;;;;;;14.80;99.90;;;;;;5043814;28;19927;-70
2023/06/18 01:43:53;;;;;;;;;;;14.80;99.90;;;;;;5044487;28;19921;-70
2023/06/18 01:46:21;;;;;;;;;;;14.80;99.90;;;;;;5044811;28;19921;-70
2023/06/18 01:48:51;;;;;;;;;;;14.70;99.90;;;;;;5045008;28;19929;-70
2023/06/18 01:51:19;;;;;;;;;;;14.50;99.90;;;;;;5043485;28;20223;-70
2023/06/18 01:53:46;;;;;;;;;;;14.50;99.90;;;;;;5044014;28;19927;-70
2023/06/18 01:56:13;;;;;;;;;;;14.50;99.90;;;;;;5044085;28;19921;-70
2023/06/18 01:58:42;;;;;;;;;;;14.40;99.90;;;;;;5044211;28;20007;-70
2023/06/18 02:01:11;;;;;;;;;;;14.30;99.90;;;;;;5043336;28;19984;-70
2023/06/18 02:03:37;;;;;;;;;;;14.30;99.90;;;;;;5044145;28;19984;-70
2023/06/18 02:06:04;;;;;;;;;;;14.30;99.90;;;;;;5043971;28;20134;-70
2023/06/18 02:08:31;;;;;;;;;;;14.30;99.90;;;;;;5043764;28;19921;-70
2023/06/18 02:10:58;;;;;;;;;;;14.20;99.90;;;;;;5043465;28;19952;-70
2023/06/18 02:13:24;;;;;;;;;;;14.20;99.90;;;;;;5043946;28;19921;-70
2023/06/18 02:15:51;;;;;;;;;;;14.20;99.90;;;;;;5043575;28;19985;-70
2023/06/18 02:18:19;;;;;;;;;;;14.20;99.90;;;;;;5043387;28;19920;-69
2023/06/18 02:20:45;;;;;;;;;;;14.10;99.90;;;;;;5043293;28;19921;-70
2023/06/18 02:23:12;;;;;;;;;;;14.10;99.90;;;;;;5043808;28;19944;-70
2023/06/18 02:25:39;;;;;;;;;;;14.10;99.90;;;;;;5043809;28;19969;-70
2023/06/18 02:28:06;;;;;;;;;;;14.00;99.90;;;;;;5043802;28;19921;-70
2023/06/18 02:30:33;;;;;;;;;;;14.00;99.90;;;;;;5042954;28;19971;-70
2023/06/18 02:33:02;;;;;;;;;;;13.90;99.90;;;;;;5043693;28;19921;-70
2023/06/18 02:35:30;;;;;;;;;;;13.90;99.90;;;;;;5043338;28;19921;-70
2023/06/18 02:37:57;;;;;;;;;;;13.80;99.90;;;;;;5043680;28;19921;-70
2023/06/18 02:40:24;;;;;;;;;;;13.80;99.90;;;;;;5043021;28;19921;-69
2023/06/18 02:42:52;;;;;;;;;;;13.80;99.90;;;;;;5043742;28;19921;-69
2023/06/18 02:45:19;;;;;;;;;;;13.80;99.90;;;;;;5043543;28;19921;-70
2023/06/18 02:47:46;;;;;;;;;;;13.70;99.90;;;;;;5043576;28;19921;-70
2023/06/18 02:50:13;;;;;;;;;;;13.70;99.90;;;;;;5043076;28;19920;-70
2023/06/18 02:52:41;;;;;;;;;;;13.60;99.90;;;;;;5043474;28;19928;-70
2023/06/18 02:55:08;;;;;;;;;;;13.60;99.90;;;;;;5043336;28;19927;-70
2023/06/18 02:57:35;;;;;;;;;;;13.60;99.90;;;;;;5043534;28;19921;-70
2023/06/18 03:00:04;;;;;;;;;;;13.50;99.90;;;;;;5043173;28;19944;-71
2023/06/18 03:02:31;;;;;;;;;;;13.50;99.90;;;;;;5043310;28;19957;-70
2023/06/18 03:04:57;;;;;;;;;;;13.50;99.90;;;;;;5043171;28;19985;-70
2023/06/18 03:07:24;;;;;;;;;;;13.50;99.90;;;;;;5043008;28;19984;-70
2023/06/18 03:09:53;;;;;;;;;;;13.50;99.90;;;;;;5043391;28;20120;-70
2023/06/18 03:12:19;;;;;;;;;;;13.50;99.90;;;;;;5042454;28;19925;-70
2023/06/18 03:14:46;;;;;;;;;;;13.40;99.90;;;;;;5043021;28;19963;-70
2023/06/18 03:17:13;;;;;;;;;;;13.40;99.90;;;;;;5043210;28;20008;-70
2023/06/18 03:19:39;;;;;;;;;;;13.30;99.90;;;;;;5043213;28;19984;-70
2023/06/18 03:22:06;;;;;;;;;;;13.30;99.90;;;;;;5042517;28;20104;-70
2023/06/18 03:24:33;;;;;;;;;;;13.20;99.90;;;;;;5042965;28;19989;-70
2023/06/18 03:27:01;;;;;;;;;;;13.20;99.90;;;;;;5043177;28;19927;-70
2023/06/18 03:29:28;;;;;;;;;;;13.20;99.90;;;;;;5042892;28;19984;-70
2023/06/18 03:31:55;;;;;;;;;;;13.20;99.90;;;;;;5042680;28;19921;-70
2023/06/18 03:34:24;;;;;;;;;;;13.20;99.90;;;;;;5040469;28;19921;-69
2023/06/18 03:36:51;;;;;;;;;;;13.20;99.90;;;;;;5042859;28;19928;-70
2023/06/18 03:39:18;;;;;;;;;;;12.90;99.90;;;;;;5042731;28;19928;-73
2023/06/18 03:41:45;;;;;;;;;;;12.80;99.90;;;;;;5042483;28;19948;-72
2023/06/18 03:44:13;;;;;;;;;;;12.80;99.90;;;;;;5045669;28;19921;-70
2023/06/18 03:46:39;;;;;;;;;;;12.80;99.90;;;;;;5046580;28;19988;-70
2023/06/18 03:49:06;;;;;;;;;;;12.90;99.90;;;;;;5046309;28;20209;-69
2023/06/18 03:51:32;;;;;;;;;;;12.80;99.90;;;;;;5045907;28;19995;-70
2023/06/18 03:53:59;;;;;;;;;;;12.90;99.90;;;;;;5046359;28;19921;-70
2023/06/18 03:56:26;;;;;;;;;;;12.90;99.90;;;;;;5046309;28;19928;-69
2023/06/18 03:58:53;;;;;;;;;;;12.90;99.90;;;;;;5046214;28;19957;-70
2023/06/18 04:01:20;;;;;;;;;;;12.90;99.90;;;;;;5045287;28;19984;-69
2023/06/18 04:03:47;;;;;;;;;;;12.90;99.90;;;;;;5046138;28;20120;-70
2023/06/18 04:06:14;;;;;;;;;;;13.00;99.90;;;;;;5046177;28;19928;-70
2023/06/18 04:08:41;;;;;;;;;;;12.90;99.90;;;;;;5046278;28;19967;-70
2023/06/18 04:11:08;;;;;;;;;;;13.00;99.90;;;;;;5045570;28;19921;-70
2023/06/18 04:13:35;;;;;;;;;;;13.00;99.90;;;;;;5045982;28;20263;-70
2023/06/18 04:16:02;;;;;;;;;;;13.00;99.90;;;;;;5045430;28;19921;-70
2023/06/18 04:18:30;;;;;;;;;;;13.00;99.90;;;;;;5046075;28;19921;-71
2023/06/18 04:20:56;;;;;;;;;;;13.10;99.90;;;;;;5045170;28;19921;-69
2023/06/18 04:23:23;;;;;;;;;;;13.10;99.90;;;;;;5045972;28;19921;-71
2023/06/18 04:25:50;;;;;;;;;;;13.20;99.90;;;;;;5045540;28;19984;-70
2023/06/18 04:28:16;;;;;;;;;;;13.20;99.90;;;;;;5035040;28;20006;-71
2023/06/18 04:30:44;;;;;;;;;;;13.30;99.90;;;;;;5042492;28;19928;-70
2023/06/18 04:33:11;;;;;;;;;;;13.40;99.90;;;;;;5045553;28;19921;-70
2023/06/18 04:35:39;;;;;;;;;;;13.40;99.90;;;;;;5045643;28;19928;-70
2023/06/18 04:38:06;;;;;;;;;;;13.50;99.90;;;;;;5045455;28;19921;-70
2023/06/18 04:40:32;;;;;;;;;;;13.50;99.90;;;;;;5045236;28;19921;-70
2023/06/18 04:42:59;;;;;;;;;;;13.60;99.90;;;;;;5045625;28;19992;-70
2023/06/18 04:45:25;;;;;;;;;;;13.60;99.90;;;;;;5045413;28;19925;-70
2023/06/18 04:47:52;;;;;;;;;;;13.60;99.90;;;;;;5044141;28;19952;-70
2023/06/18 04:50:19;;;;;;;;;;;13.70;99.90;;;;;;5044926;28;19964;-70
2023/06/18 04:52:47;;;;;;;;;;;13.70;99.90;;;;;;5045505;28;20000;-70
2023/06/18 04:55:13;;;;;;;;;;;13.80;99.90;;;;;;5044999;28;19979;-70
2023/06/18 04:57:43;;;;;;;;;;;13.90;99.90;;;;;;5044184;28;20102;-70
2023/06/18 05:00:10;;;;;;;;;;;13.90;99.90;;;;;;5044779;28;19921;-70
2023/06/18 05:02:37;;;;;;;;;;;14.00;99.90;;;;;;5045084;28;19984;-70
2023/06/18 05:05:04;;;;;;;;;;;14.10;99.90;;;;;;5044791;28;20382;-70
2023/06/18 05:07:30;;;;;;;;;;;14.20;99.90;;;;;;5045041;28;19956;-70
2023/06/18 05:09:58;;;;;;;;;;;14.30;99.90;;;;;;5045111;28;19927;-70
2023/06/18 05:12:25;;;;;;;;;;;14.40;99.90;;;;;;5043735;28;19984;-70
2023/06/18 05:14:51;;;;;;;;;;;14.50;99.90;;;;;;5044376;28;19925;-70
2023/06/18 05:17:18;;;;;;;;;;;14.60;99.90;;;;;;5044897;28;20116;-70
2023/06/18 05:19:45;;;;;;;;;;;14.60;99.90;;;;;;5044946;28;19921;-69
2023/06/18 05:22:12;;;;;;;;;;;14.70;99.90;;;;;;5043540;28;20177;-70
2023/06/18 05:24:39;;;;;;;;;;;14.80;99.90;;;;;;5044712;28;19921;-70
2023/06/18 05:27:08;;;;;;;;;;;14.90;99.90;;;;;;5044359;28;19929;-70
2023/06/18 05:29:34;;;;;;;;;;;15.00;99.90;;;;;;5042503;28;19936;-70
2023/06/18 05:32:01;;;;;;;;;;;15.10;99.90;;;;;;5044124;28;19920;-70
2023/06/18 05:34:27;;;;;;;;;;;15.10;99.90;;;;;;5044630;28;19957;-71
2023/06/18 05:36:54;;;;;;;;;;;15.20;99.90;;;;;;5044196;28;19925;-71
2023/06/18 05:39:21;;;;;;;;;;;15.40;99.90;;;;;;5044627;28;19956;-71
2023/06/18 05:41:48;;;;;;;;;;;15.50;99.90;;;;;;5043958;28;19927;-70
2023/06/18 05:44:16;;;;;;;;;;;15.50;99.90;;;;;;5044512;28;19921;-70
2023/06/18 05:46:42;;;;;;;;;;;15.70;99.90;;;;;;5044358;28;20102;-70
2023/06/18 05:49:09;;;;;;;;;;;15.80;99.90;;;;;;5043987;28;19956;-70
2023/06/18 05:51:36;;;;;;;;;;;16.00;99.90;;;;;;5043704;28;20009;-70
2023/06/18 05:54:03;;;;;;;;;;;16.10;99.90;;;;;;5044306;28;19967;-70
2023/06/18 05:56:29;;;;;;;;;;;16.30;99.90;;;;;;5043995;28;19933;-70
2023/06/18 05:58:56;;;;;;;;;;;16.40;99.90;;;;;;5044053;28;19988;-70
2023/06/18 06:01:24;;;;;;;;;;;16.60;99.90;;;;;;5043200;28;20145;-70
2023/06/18 06:03:51;;;;;;;;;;;16.70;99.90;;;;;;5044257;28;20148;-70
2023/06/18 06:06:19;;;;;;;;;;;16.80;99.90;;;;;;5042700;28;19984;-70
2023/06/18 06:08:46;;;;;;;;;;;16.90;99.90;;;;;;5044072;28;19927;-70
2023/06/18 06:11:12;;;;;;;;;;;17.10;99.90;;;;;;5043505;28;19984;-72
2023/06/18 06:13:39;;;;;;;;;;;17.20;99.90;;;;;;5043452;28;19927;-71
2023/06/18 06:16:12;;;;;;;;;;;17.30;99.90;;;;;;5041957;28;20120;-70
2023/06/18 06:18:40;;;;;;;;;;;17.50;99.90;;;;;;5043583;28;20228;-70
2023/06/18 06:21:07;;;;;;;;;;;17.60;99.90;;;;;;5039891;28;19921;-70
2023/06/18 06:23:34;;;;;;;;;;;17.70;99.90;;;;;;5043648;28;19921;-71
2023/06/18 06:26:01;;;;;;;;;;;17.80;99.90;;;;;;5043648;28;19944;-70
2023/06/18 06:28:28;;;;;;;;;;;17.90;99.90;;;;;;5043581;28;20212;-70
2023/06/18 06:30:55;;;;;;;;;;;17.90;99.90;;;;;;5039887;28;19925;-70
2023/06/18 06:33:22;;;;;;;;;;;18.10;99.90;;;;;;5043671;28;19921;-70
2023/06/18 06:35:50;;;;;;;;;;;18.20;99.90;;;;;;5042035;28;19928;-71
2023/06/18 06:38:16;;;;;;;;;;;18.40;99.90;;;;;;5043497;28;19921;-70
2023/06/18 06:40:43;;;;;;;;;;;18.50;99.90;;;;;;5042978;28;19988;-70
2023/06/18 06:43:10;;;;;;;;;;;18.60;99.90;;;;;;5043295;28;20213;-70
2023/06/18 06:45:38;;;;;;;;;;;18.70;99.90;;;;;;5042390;28;19959;-70
2023/06/18 06:48:05;;;;;;;;;;;18.90;99.90;;;;;;5041016;28;20077;-71
2023/06/18 06:50:32;;;;;;;;;;;19.00;99.90;;;;;;5042857;28;19927;-70
2023/06/18 06:53:00;;;;;;;;;;;19.10;99.90;;;;;;5043249;28;19929;-70
2023/06/18 06:55:26;;;;;;;;;;;19.20;99.90;;;;;;5042987;28;20212;-69
2023/06/18 06:57:53;;;;;;;;;;;19.30;99.90;;;;;;5042902;28;19992;-70
2023/06/18 07:00:20;;;;;;;;;;;19.50;99.90;;;;;;5040084;28;19996;-70
2023/06/18 07:02:46;;;;;;;;;;;19.60;99.90;;;;;;5043132;28;19988;-70
2023/06/18 07:05:13;;;;;;;;;;;19.70;99.90;;;;;;5042418;28;20289;-71
2023/06/18 07:07:40;;;;;;;;;;;19.90;99.90;;;;;;5043104;28;20008;-70
2023/06/18 07:10:08;;;;;;;;;;;20.00;99.90;;;;;;5042401;28;19921;-71
2023/06/18 07:12:35;;;;;;;;;;;20.20;99.90;;;;;;5043075;28;19996;-70
2023/06/18 07:15:01;;;;;;;;;;;20.40;99.90;;;;;;5042437;28;19936;-71
2023/06/18 07:17:28;;;;;;;;;;;20.40;99.90;;;;;;5042884;28;19988;-70
2023/06/18 07:19:54;;;;;;;;;;;20.50;99.90;;;;;;5046503;28;19988;-71
2023/06/18 07:22:21;;;;;;;;;;;20.60;99.90;;;;;;5046128;28;19992;-70
2023/06/18 07:24:48;;;;;;;;;;;20.60;99.90;;;;;;5046548;28;19925;-70
2023/06/18 07:27:16;;;;;;;;;;;20.70;99.90;;;;;;5032592;28;20087;-70
2023/06/18 07:29:42;;;;;;;;;;;20.80;99.90;;;;;;5046566;28;19987;-71
2023/06/18 07:32:09;;;;;;;;;;;20.90;99.90;;;;;;5045870;28;19921;-71
2023/06/18 07:34:35;;;;;;;;;;;21.00;99.90;;;;;;5046095;28;20209;-70
2023/06/18 07:37:02;;;;;;;;;;;21.20;99.90;;;;;;5046184;28;19921;-71
2023/06/18 07:39:34;;;;;;;;;;;21.30;99.90;;;;;;5046226;28;20966;-70
2023/06/18 07:42:00;;;;;;;;;;;21.40;99.90;;;;;;5045968;28;20144;-70
2023/06/18 07:44:28;;;;;;;;;;;21.50;99.90;;;;;;5046412;28;19988;-70
2023/06/18 07:46:55;;;;;;;;;;;21.60;99.90;;;;;;5046446;28;19964;-70
2023/06/18 07:49:22;;;;;;;;;;;21.70;99.90;;;;;;5046190;28;19921;-71
2023/06/18 07:51:48;;;;;;;;;;;21.80;99.90;;;;;;5045727;28;19949;-70
2023/06/18 07:54:15;;;;;;;;;;;21.80;99.90;;;;;;5046063;28;19936;-69
2023/06/18 07:56:42;;;;;;;;;;;21.90;99.90;;;;;;5026023;28;19988;-69
2023/06/18 07:59:08;;;;;;;;;;;22.10;99.90;;;;;;5026244;28;19928;-69
2023/06/18 08:01:36;;;;;;;;;;;22.10;99.90;;;;;;5025782;28;19921;-69
2023/06/18 08:04:03;;;;;;;;;;;22.30;99.90;;;;;;5026771;28;19922;-69
2023/06/18 08:06:30;;;;;;;;;;;22.40;99.90;;;;;;5026357;28;19927;-69
2023/06/18 08:08:56;;;;;;;;;;;22.40;99.90;;;;;;5026395;28;20009;-69
2023/06/18 08:11:23;;;;;;;;;;;22.50;99.90;;;;;;5022935;28;19922;-69
2023/06/18 08:13:50;;;;;;;;;;;22.60;99.90;;;;;;5026216;28;19944;-69
2023/06/18 08:16:17;;;;;;;;;;;22.70;99.90;;;;;;5025737;28;20028;-69
2023/06/18 08:18:45;;;;;;;;;;;22.70;99.90;;;;;;5026101;28;19921;-69
2023/06/18 08:21:12;;;;;;;;;;;22.80;99.90;;;;;;5025231;28;20031;-69
2023/06/18 08:23:38;;;;;;;;;;;22.90;99.90;;;;;;5025870;28;19964;-69
2023/06/18 08:26:05;;;;;;;;;;;23.00;99.90;;;;;;5037541;28;19921;-70
2023/06/18 08:28:32;;;;;;;;;;;23.10;99.90;;;;;;5045362;28;19921;-69
2023/06/18 08:30:58;;;;;;;;;;;23.20;99.90;;;;;;5044778;28;19927;-69
2023/06/18 08:33:25;;;;;;;;;;;23.30;99.90;;;;;;5045427;28;20209;-68
2023/06/18 08:35:53;;;;;;;;;;;23.40;99.90;;;;;;5045528;28;19932;-69
2023/06/18 08:38:20;;;;;;;;;;;23.50;99.90;;;;;;5045256;28;20097;-69
2023/06/18 08:40:50;;;;;;;;;;;23.60;99.90;;;;;;5044819;28;19927;-69
2023/06/18 08:43:21;;;;;;;;;;;23.70;99.60;;;;;;5045493;28;19956;-68
2023/06/18 08:45:50;;;;;;;;;;;23.80;99.30;;;;;;5045309;28;19921;-71
2023/06/18 08:48:18;;;;;;;;;;;23.90;99.40;;;;;;5045336;28;19928;-69
2023/06/18 08:50:45;;;;;;;;;;;24.10;96.90;;;;;;5044796;28;20012;-70
2023/06/18 08:53:17;;;;;;;;;;;24.10;94.30;;;;;;5044956;28;19928;-69
2023/06/18 08:55:44;;;;;;;;;;;24.10;95.50;;;;;;5045189;28;19921;-69
2023/06/18 08:58:14;;;;;;;;;;;24.20;94.30;;;;;;5045190;28;19928;-70
2023/06/18 09:00:40;;;;;;;;;;;24.30;93.70;;;;;;5044495;28;19929;-70
2023/06/18 09:03:07;;;;;;;;;;;24.30;93.50;;;;;;5045450;28;20145;-70
2023/06/18 09:05:34;;;;;;;;;;;24.40;93.20;;;;;;5045434;28;19945;-70
2023/06/18 09:08:01;;;;;;;;;;;24.50;91.40;;;;;;5045308;28;19964;-70
2023/06/18 09:10:31;;;;;;;;;;;24.50;90.60;;;;;;5041871;28;19984;-69
2023/06/18 09:12:58;;;;;;;;;;;24.50;90.90;;;;;;5044959;28;19984;-69
2023/06/18 09:15:25;;;;;;;;;;;24.60;91.90;;;;;;5044677;28;19921;-70
2023/06/18 09:17:55;;;;;;;;;;;24.70;90.20;;;;;;5043711;28;19921;-69
2023/06/18 09:20:22;;;;;;;;;;;24.80;90.90;;;;;;5044204;28;20003;-70
2023/06/18 09:22:49;;;;;;;;;;;24.80;87.90;;;;;;5044712;28;20105;-70
2023/06/18 09:25:19;;;;;;;;;;;24.90;87.50;;;;;;5044707;28;19921;-69
2023/06/18 09:27:48;;;;;;;;;;;24.90;88.90;;;;;;5043507;28;19925;-70
2023/06/18 09:30:18;;;;;;;;;;;25.00;89.70;;;;;;5044311;28;20121;-71
2023/06/18 09:32:48;;;;;;;;;;;25.10;90.30;;;;;;5044293;28;19993;-70
2023/06/18 09:35:16;;;;;;;;;;;25.30;89.00;;;;;;5044189;28;20209;-69
2023/06/18 09:37:42;;;;;;;;;;;25.40;89.10;;;;;;5044610;28;19984;-69
2023/06/18 09:40:14;;;;;;;;;;;25.50;86.90;;;;;;5043470;28;19922;-72
2023/06/18 09:42:41;;;;;;;;;;;25.60;88.90;;;;;;5044339;28;19921;-69
2023/06/18 09:45:10;;;;;;;;;;;25.70;87.00;;;;;;5044113;28;19996;-69
2023/06/18 09:47:37;;;;;;;;;;;25.80;87.60;;;;;;5044089;28;19927;-70
2023/06/18 09:50:05;;;;;;;;;;;25.90;85.30;;;;;;5043783;28;19921;-70
2023/06/18 09:52:31;;;;;;;;;;;26.00;85.50;;;;;;5044178;28;19928;-69
2023/06/18 09:54:58;;;;;;;;;;;26.00;85.20;;;;;;5043846;28;20562;-69
2023/06/18 09:57:25;;;;;;;;;;;26.10;83.60;;;;;;5044126;28;19967;-70
2023/06/18 10:00:09;;;;;;;;;;;26.20;83.50;;;;;;5044165;28;19929;-69
2023/06/18 10:02:37;;;;;;;;;;;26.20;84.30;;;;;;5043830;28;19992;-69
2023/06/18 10:05:04;;;;;;;;;;;26.40;84.60;;;;;;5043889;28;19921;-69
2023/06/18 10:07:32;;;;;;;;;;;26.50;83.20;;;;;;5043817;28;19921;-70
2023/06/18 10:10:06;;;;;;;;;;;26.60;82.60;;;;;;5041464;28;19984;-70
2023/06/18 10:12:32;;;;;;;;;;;26.70;84.10;;;;;;5043553;28;19921;-69
2023/06/18 10:14:59;;;;;;;;;;;26.80;84.90;;;;;;5043423;28;20120;-69
2023/06/18 10:17:26;;;;;;;;;;;27.00;83.50;;;;;;5043657;28;19956;-69
2023/06/18 10:19:58;;;;;;;;;;;27.10;80.20;;;;;;5043634;28;20156;-69
2023/06/18 10:22:27;;;;;;;;;;;27.10;79.60;;;;;;5043179;28;19988;-69
2023/06/18 10:24:57;;;;;;;;;;;27.10;80.10;;;;;;5041818;28;19929;-69
2023/06/18 10:27:25;;;;;;;;;;;27.10;78.80;;;;;;5040810;28;19931;-69
2023/06/18 10:29:51;;;;;;;;;;;27.20;80.00;;;;;;5043668;28;19921;-69
2023/06/18 10:32:18;;;;;;;;;;;27.30;81.20;;;;;;5042622;28;20090;-69
2023/06/18 10:34:46;;;;;;;;;;;27.40;80.60;;;;;;5041823;28;20232;-71
2023/06/18 10:37:14;;;;;;;;;;;27.50;76.70;;;;;;5041601;28;19921;-69
2023/06/18 10:39:41;;;;;;;;;;;27.60;78.20;;;;;;5043329;28;19963;-70
2023/06/18 10:42:12;;;;;;;;;;;27.70;77.90;;;;;;5042521;28;19928;-69
2023/06/18 10:44:49;;;;;;;;;;;27.80;78.10;;;;;;5043029;28;19925;-70
2023/06/18 10:47:19;;;;;;;;;;;27.90;77.40;;;;;;5043319;28;20223;-70
2023/06/18 10:50:05;;;;;;;;;;;28.10;77.10;;;;;;5043415;28;19928;-70
2023/06/18 10:52:33;;;;;;;;;;;28.10;76.10;;;;;;5044795;28;19925;-70
2023/06/18 10:55:06;;;;;;;;;;;28.30;75.60;;;;;;5047195;28;19929;-70
2023/06/18 10:57:32;;;;;;;;;;;28.30;74.50;;;;;;5047612;28;19963;-69
2023/06/18 10:59:59;;;;;;;;;;;28.40;74.60;;;;;;5047237;28;19992;-71
2023/06/18 11:02:32;;;;;;;;;;;28.40;73.30;;;;;;5047196;28;20001;-69
2023/06/18 11:04:59;;;;;;;;;;;28.40;73.20;;;;;;5047168;28;19920;-69
2023/06/18 11:07:27;;;;;;;;;;;28.50;73.00;;;;;;5047283;28;20113;-69
2023/06/18 11:09:57;;;;;;;;;;;28.50;71.60;;;;;;5047071;28;19921;-70
2023/06/18 11:12:25;;;;;;;;;;;28.70;73.40;;;;;;5046303;28;20148;-70
2023/06/18 11:15:04;;;;;;;;;;;28.80;72.30;;;;;;5044968;28;20336;-73
2023/06/18 11:17:32;;;;;;;;;;;28.90;70.30;;;;;;5046112;28;19959;-71
2023/06/18 11:19:59;;;;;;;;;;;28.90;69.40;;;;;;5038366;28;19927;-72
2023/06/18 11:22:26;;;;;;;;;;;28.90;70.50;;;;;;5046542;28;19928;-72
2023/06/18 11:24:53;;;;;;;;;;;28.90;68.10;;;;;;5036462;28;19921;-72
2023/06/18 11:27:22;;;;;;;;;;;29.00;69.20;;;;;;5030788;28;19996;-72
2023/06/18 11:29:49;;;;;;;;;;;29.10;68.70;;;;;;5050910;28;19929;-71
2023/06/18 11:32:16;;;;;;;;;;;29.20;68.20;;;;;;5058909;28;19921;-72
2023/06/18 11:34:42;;;;;;;;;;;29.30;66.60;;;;;;5044879;28;19985;-72
2023/06/18 11:37:10;;;;;;;;;;;29.40;67.30;;;;;;5044727;28;19921;-72
2023/06/18 11:39:37;;;;;;;;;;;29.40;68.00;;;;;;5046117;28;19975;-72
2023/06/18 11:42:13;;;;;;;;;;;29.50;67.40;;;;;;5037621;28;19985;-72
2023/06/18 11:44:46;;;;;;;;;;;29.70;66.70;;;;;;5041050;28;20216;-72
2023/06/18 11:47:13;;;;;;;;;;;29.80;67.10;;;;;;5046641;28;19985;-72
2023/06/18 11:49:41;;;;;;;;;;;30.00;66.80;;;;;;5046642;28;19988;-72
2023/06/18 11:52:09;;;;;;;;;;;30.00;66.80;;;;;;5043184;28;19921;-72
2023/06/18 11:54:37;;;;;;;;;;;30.10;66.00;;;;;;5046155;28;19984;-72
2023/06/18 11:57:04;;;;;;;;;;;30.20;65.50;;;;;;5031253;28;19922;-73
2023/06/18 11:59:31;;;;;;;;;;;30.30;65.70;;;;;;5026587;28;20113;-72
2023/06/18 12:02:10;;;;;;;;;;;30.40;65.30;;;;;;5040931;28;20089;-71
2023/06/18 12:04:37;;;;;;;;;;;30.50;66.50;;;;;;5045495;28;20113;-71
2023/06/18 12:07:04;;;;;;;;;;;30.60;65.80;;;;;;5046188;28;19921;-73
2023/06/18 12:09:32;;;;;;;;;;;30.70;65.00;;;;;;5045909;28;19921;-71
2023/06/18 12:12:03;;;;;;;;;;;30.80;64.00;;;;;;5045477;28;19921;-71
2023/06/18 12:14:32;;;;;;;;;;;30.80;62.30;;;;;;5025790;28;20113;-71
2023/06/18 12:17:00;;;;;;;;;;;30.80;61.50;;;;;;5026176;28;20206;-71
2023/06/18 12:19:29;;;;;;;;;;;30.80;60.50;;;;;;5026105;28;19925;-73
2023/06/18 12:21:56;;;;;;;;;;;31.00;60.80;;;;;;5025401;28;19984;-73
2023/06/18 12:24:25;;;;;;;;;;;31.10;61.30;;;;;;5039690;28;19928;-71
2023/06/18 12:26:52;;;;;;;;;;;31.20;59.90;;;;;;5045471;28;19925;-71
2023/06/18 12:29:18;;;;;;;;;;;31.20;60.70;;;;;;5045804;28;19964;-71
2023/06/18 12:32:00;;;;;;;;;;;31.20;62.70;;;;;;5044884;28;19925;-71
2023/06/18 12:34:27;;;;;;;;;;;31.30;59.80;;;;;;5045354;28;20264;-71
2023/06/18 12:36:56;;;;;;;;;;;31.50;57.90;;;;;;5045513;28;19988;-71
2023/06/18 12:39:22;;;;;;;;;;;31.50;57.20;;;;;;5045550;28;19957;-72
2023/06/18 12:41:49;;;;;;;;;;;31.70;58.20;;;;;;5044986;28;19980;-72
2023/06/18 12:44:18;;;;;;;;;;;31.80;57.40;;;;;;5045100;28;19927;-71
2023/06/18 12:46:45;;;;;;;;;;;31.90;57.80;;;;;;5045137;28;19921;-71
2023/06/18 12:49:15;;;;;;;;;;;32.00;57.50;;;;;;5045373;28;19963;-71
2023/06/18 12:51:41;;;;;;;;;;;32.00;57.30;;;;;;5044496;28;20280;-71
2023/06/18 12:54:14;;;;;;;;;;;32.10;56.50;;;;;;5045095;28;19921;-71
2023/06/18 12:56:46;;;;;;;;;;;32.30;57.70;;;;;;5043873;28;19992;-71
2023/06/18 12:59:16;;;;;;;;;;;32.40;56.60;;;;;;5044639;28;19929;-71
2023/06/18 13:01:43;;;;;;;;;;;32.20;55.70;;;;;;5044000;28;19952;-72
2023/06/18 13:04:10;;;;;;;;;;;32.30;57.70;;;;;;5044943;28;20143;-71
2023/06/18 13:06:36;;;;;;;;;;;32.40;55.40;;;;;;5044463;28;19925;-71
2023/06/18 13:09:04;;;;;;;;;;;32.40;56.80;;;;;;5044961;28;19988;-71
2023/06/18 13:11:32;;;;;;;;;;;32.30;56.50;;;;;;5043034;28;19921;-72
2023/06/18 13:14:00;;;;;;;;;;;32.40;56.80;;;;;;5044500;28;19971;-71
2023/06/18 13:16:27;;;;;;;;;;;32.60;57.50;;;;;;5043295;28;19956;-71
2023/06/18 13:18:53;;;;;;;;;;;32.80;57.50;;;;;;5044573;28;19921;-71
2023/06/18 13:21:20;;;;;;;;;;;33.00;57.00;;;;;;5043761;28;19990;-71
2023/06/18 13:23:48;;;;;;;;;;;33.20;57.00;;;;;;5042107;28;20145;-72
2023/06/18 13:26:16;;;;;;;;;;;33.30;56.70;;;;;;5043298;28;19921;-71
2023/06/18 13:28:44;;;;;;;;;;;33.20;55.80;;;;;;5044371;28;20213;-71
2023/06/18 13:31:11;;;;;;;;;;;33.10;56.00;;;;;;5043995;28;19988;-71
2023/06/18 13:33:38;;;;;;;;;;;33.20;56.10;;;;;;5044261;28;19925;-71
2023/06/18 13:36:06;;;;;;;;;;;33.10;54.40;;;;;;5044359;28;19987;-71
2023/06/18 13:38:33;;;;;;;;;;;33.20;55.70;;;;;;5044572;28;19956;-71
2023/06/18 13:40:59;;;;;;;;;;;33.30;56.10;;;;;;5043711;28;20213;-71
2023/06/18 13:43:26;;;;;;;;;;;33.40;55.00;;;;;;5044066;28;19921;-71
2023/06/18 13:45:55;;;;;;;;;;;33.30;55.10;;;;;;5044239;28;19963;-71
2023/06/18 13:48:22;;;;;;;;;;;33.10;55.20;;;;;;5044449;28;19949;-71
2023/06/18 13:50:49;;;;;;;;;;;32.90;56.20;;;;;;5043587;28;20000;-72
2023/06/18 13:53:17;;;;;;;;;;;33.00;55.80;;;;;;5043958;28;19921;-71
2023/06/18 13:55:44;;;;;;;;;;;33.20;56.10;;;;;;5043675;28;20209;-71
2023/06/18 13:58:11;;;;;;;;;;;33.20;54.90;;;;;;5044159;28;20144;-71
2023/06/18 14:00:38;;;;;;;;;;;33.30;55.60;;;;;;5043395;28;19991;-71
2023/06/18 14:03:06;;;;;;;;;;;33.40;53.90;;;;;;5044052;28;19928;-71
2023/06/18 14:05:35;;;;;;;;;;;33.30;54.40;;;;;;5043857;28;19944;-71
2023/06/18 14:08:03;;;;;;;;;;;33.20;55.90;;;;;;5043940;28;19921;-71
2023/06/18 14:10:30;;;;;;;;;;;33.00;55.00;;;;;;5043099;28;19996;-71
2023/06/18 14:12:56;;;;;;;;;;;32.90;55.30;;;;;;5043994;28;19925;-73
2023/06/18 14:15:23;;;;;;;;;;;32.80;54.60;;;;;;5043448;28;19927;-72
2023/06/18 14:17:50;;;;;;;;;;;32.90;55.80;;;;;;5043862;28;19959;-71